createdAt,value
2018-11-13T00:01:58.293Z,25.43
2018-11-13T00:04:32.337Z,27.20
2018-11-13T00:07:06.569Z,38.90
2018-11-13T00:09:40.615Z,25.08
2018-11-13T00:12:14.757Z,27.15
2018-11-13T00:14:48.770Z,27.07
2018-11-13T00:17:22.741Z,30.27
2018-11-13T00:19:56.665Z,27.00
2018-11-13T00:22:30.721Z,31.23
2018-11-13T00:25:04.704Z,27.42
2018-11-13T00:27:38.718Z,30.52
2018-11-13T00:30:14.912Z,28.92
2018-11-13T00:32:49.047Z,28.60
2018-11-13T00:35:23.477Z,27.40
2018-11-13T00:37:57.511Z,29.92
2018-11-13T00:40:31.432Z,28.52
2018-11-13T00:43:05.433Z,27.62
2018-11-13T00:45:39.428Z,27.40
2018-11-13T00:48:13.335Z,31.35
2018-11-13T00:50:47.252Z,29.95
2018-11-13T00:53:21.289Z,32.53
2018-11-13T00:55:55.211Z,41.35
2018-11-13T00:58:29.189Z,29.72
2018-11-13T01:01:03.182Z,27.50
2018-11-13T01:03:37.236Z,39.23
2018-11-13T01:06:11.142Z,27.90
2018-11-13T01:08:45.090Z,31.68
2018-11-13T01:11:19.000Z,27.62
2018-11-13T01:13:52.999Z,28.57
2018-11-13T01:16:26.922Z,28.37
2018-11-13T01:19:00.900Z,26.17
2018-11-13T01:21:34.849Z,25.68
2018-11-13T01:24:08.880Z,26.37
2018-11-13T01:26:42.808Z,27.57
2018-11-13T01:29:16.778Z,26.42
2018-11-13T01:31:50.711Z,27.67
2018-11-13T01:34:24.757Z,26.55
2018-11-13T01:36:58.690Z,27.07
2018-11-13T01:39:32.634Z,30.25
2018-11-13T01:42:06.956Z,29.90
2018-11-13T01:44:40.926Z,31.02
2018-11-13T01:47:14.898Z,34.30
2018-11-13T01:49:48.828Z,28.70
2018-11-13T01:52:22.766Z,30.82
2018-11-13T01:54:56.947Z,28.98
2018-11-13T01:57:30.946Z,30.72
2018-11-13T02:00:05.482Z,30.75
2018-11-13T02:02:39.415Z,25.12
2018-11-13T02:05:13.474Z,31.05
2018-11-13T02:07:47.604Z,30.15
2018-11-13T02:10:21.912Z,47.58
2018-11-13T02:12:55.922Z,29.65
2018-11-13T02:15:30.137Z,44.83
2018-11-13T02:18:04.157Z,29.75
2018-11-13T02:20:38.310Z,34.85
2018-11-13T02:23:12.313Z,34.08
2018-11-13T02:25:46.454Z,33.08
2018-11-13T02:28:20.431Z,30.37
2018-11-13T02:30:54.460Z,35.17
2018-11-13T02:33:28.557Z,35.30
2018-11-13T02:36:02.595Z,36.28
2018-11-13T02:38:36.571Z,34.37
2018-11-13T02:41:10.586Z,29.33
2018-11-13T02:43:44.627Z,30.68
2018-11-13T02:46:18.648Z,53.65
2018-11-13T02:48:52.785Z,39.58
2018-11-13T02:51:27.130Z,36.88
2018-11-13T02:54:01.148Z,29.37
2018-11-13T02:56:35.725Z,32.43
2018-11-13T02:59:09.901Z,42.80
2018-11-13T03:01:44.017Z,29.45
2018-11-13T03:04:18.727Z,29.20
2018-11-13T03:06:52.774Z,32.35
2018-11-13T03:09:26.825Z,30.68
2018-11-13T03:12:00.968Z,30.90
2018-11-13T03:14:35.067Z,30.50
2018-11-13T03:17:09.117Z,30.75
2018-11-13T03:19:43.114Z,27.35
2018-11-13T03:22:17.378Z,24.65
2018-11-13T03:24:51.413Z,28.10
2018-11-13T03:27:25.460Z,29.42
2018-11-13T03:29:59.459Z,29.25
2018-11-13T03:32:33.581Z,29.57
2018-11-13T03:35:07.618Z,28.23
2018-11-13T03:37:41.756Z,44.13
2018-11-13T03:40:16.107Z,31.23
2018-11-13T03:42:50.658Z,27.95
2018-11-13T03:45:24.671Z,28.43
2018-11-13T03:47:58.765Z,29.27
2018-11-13T03:50:32.762Z,34.18
2018-11-13T03:53:06.807Z,31.33
2018-11-13T03:55:40.980Z,33.23
2018-11-13T03:58:15.045Z,42.20
2018-11-13T04:00:49.079Z,38.90
2018-11-13T04:03:23.106Z,31.37
2018-11-13T04:05:57.109Z,35.25
2018-11-13T04:08:31.253Z,29.27
2018-11-13T04:11:05.627Z,37.80
2018-11-13T04:13:39.703Z,42.57
2018-11-13T04:16:13.793Z,33.00
2018-11-13T04:18:47.928Z,37.67
2018-11-13T04:21:21.917Z,30.50
2018-11-13T04:23:55.959Z,33.08
2018-11-13T04:26:29.953Z,28.05
2018-11-13T04:29:04.142Z,37.23
2018-11-13T04:31:38.155Z,33.10
2018-11-13T04:34:12.204Z,31.15
2018-11-13T04:36:46.218Z,29.20
2018-11-13T04:39:20.463Z,29.42
2018-11-13T04:41:54.447Z,33.97
2018-11-13T04:44:28.739Z,27.73
2018-11-13T04:47:02.897Z,32.73
2018-11-13T04:49:36.941Z,30.40
2018-11-13T04:52:10.960Z,31.10
2018-11-13T04:54:45.029Z,29.03
2018-11-13T04:57:19.066Z,38.08
2018-11-13T04:59:53.250Z,30.93
2018-11-13T05:02:27.281Z,34.85
2018-11-13T05:05:01.316Z,31.37
2018-11-13T05:07:35.344Z,38.83
2018-11-13T05:10:11.707Z,31.40
2018-11-13T05:12:46.391Z,31.40
2018-11-13T05:15:20.499Z,49.10
2018-11-13T05:17:54.548Z,42.23
2018-11-13T05:20:28.588Z,33.50
2018-11-13T05:23:02.772Z,30.12
2018-11-13T05:25:36.817Z,35.58
2018-11-13T05:28:10.830Z,29.27
2018-11-13T05:30:44.855Z,38.65
2018-11-13T05:33:18.889Z,35.23
2018-11-13T05:35:52.985Z,38.90
2018-11-13T05:38:26.984Z,46.23
2018-11-13T05:41:01.004Z,40.67
2018-11-13T05:43:35.050Z,30.60
2018-11-13T05:46:09.127Z,31.65
2018-11-13T05:48:43.131Z,33.23
2018-11-13T05:51:17.250Z,48.55
2018-11-13T05:53:51.245Z,29.55
2018-11-13T05:56:25.301Z,29.18
2018-11-13T05:58:59.354Z,34.07
2018-11-13T06:01:33.473Z,28.17
2018-11-13T06:04:07.480Z,41.77
2018-11-13T06:06:41.544Z,30.23
2018-11-13T06:09:15.558Z,29.32
2018-11-13T06:11:49.691Z,29.23
2018-11-13T06:14:23.668Z,31.85
2018-11-13T06:16:57.736Z,31.02
2018-11-13T06:19:31.738Z,35.08
2018-11-13T06:22:06.190Z,28.40
2018-11-13T06:24:40.203Z,28.45
2018-11-13T06:27:14.257Z,33.15
2018-11-13T06:29:48.288Z,31.57
2018-11-13T06:32:22.461Z,33.88
2018-11-13T06:34:56.556Z,37.53
2018-11-13T06:37:30.600Z,33.15
2018-11-13T06:40:04.980Z,31.50
2018-11-13T06:42:39.428Z,42.38
2018-11-13T06:45:18.529Z,33.35
2018-11-13T06:47:53.047Z,31.23
2018-11-13T06:50:27.227Z,28.57
2018-11-13T06:53:01.321Z,29.70
2018-11-13T06:55:36.449Z,32.08
2018-11-13T06:58:10.487Z,29.00
2018-11-13T07:00:44.522Z,36.33
2018-11-13T07:03:18.560Z,51.60
2018-11-13T07:05:52.574Z,34.38
2018-11-13T07:08:26.644Z,33.02
2018-11-13T07:11:00.713Z,33.23
2018-11-13T07:13:34.989Z,40.55
2018-11-13T07:16:09.002Z,34.08
2018-11-13T07:18:43.038Z,33.88
2018-11-13T07:21:17.045Z,33.08
2018-11-13T07:23:51.089Z,30.35
2018-11-13T07:26:25.085Z,36.48
2018-11-13T07:28:59.370Z,35.83
2018-11-13T07:31:33.452Z,31.45
2018-11-13T07:34:07.664Z,43.63
2018-11-13T07:36:41.674Z,31.52
2018-11-13T07:39:15.720Z,34.30
2018-11-13T07:41:50.739Z,35.33
2018-11-13T07:44:24.865Z,35.45
2018-11-13T07:46:58.959Z,38.30
2018-11-13T07:49:32.968Z,38.50
2018-11-13T07:52:07.037Z,35.03
2018-11-13T07:54:41.106Z,38.67
2018-11-13T07:57:15.113Z,36.50
2018-11-13T07:59:49.239Z,43.42
2018-11-13T08:02:23.260Z,46.13
2018-11-13T08:04:57.281Z,45.40
2018-11-13T08:07:31.279Z,39.23
2018-11-13T08:10:05.692Z,41.85
2018-11-13T08:12:39.709Z,53.02
2018-11-13T08:15:15.261Z,43.75
2018-11-13T08:17:49.320Z,54.40
2018-11-13T08:20:23.350Z,43.28
2018-11-13T08:22:57.347Z,43.95
2018-11-13T08:25:31.516Z,45.52
2018-11-13T08:28:05.728Z,38.25
2018-11-13T08:30:39.724Z,40.55
2018-11-13T08:33:13.749Z,37.15
2018-11-13T08:35:47.858Z,38.40
2018-11-13T08:38:21.957Z,39.92
2018-11-13T08:40:56.002Z,43.05
2018-11-13T08:43:30.081Z,36.85
2018-11-13T08:46:04.491Z,37.45
2018-11-13T08:48:38.501Z,48.90
2018-11-13T08:51:12.632Z,40.75
2018-11-13T08:53:46.642Z,41.23
2018-11-13T08:56:21.696Z,42.20
2018-11-13T08:58:56.852Z,39.38
2018-11-13T09:01:31.148Z,42.75
2018-11-13T09:04:05.610Z,49.15
2018-11-13T09:06:39.770Z,36.98
2018-11-13T09:09:14.806Z,44.15
2018-11-13T09:11:49.037Z,35.03
2018-11-13T09:14:22.983Z,37.25
2018-11-13T09:16:57.096Z,32.88
2018-11-13T09:19:31.273Z,36.73
2018-11-13T09:22:05.455Z,35.98
2018-11-13T09:24:39.447Z,35.58
2018-11-13T09:27:13.769Z,34.40
2018-11-13T09:29:47.798Z,31.68
2018-11-13T09:32:21.855Z,33.85
2018-11-13T09:34:55.861Z,32.63
2018-11-13T09:37:29.998Z,31.55
2018-11-13T09:40:04.064Z,29.32
2018-11-13T09:42:38.378Z,29.00
2018-11-13T09:45:13.285Z,28.98
2018-11-13T09:47:47.481Z,32.03
2018-11-13T09:50:22.126Z,28.90
2018-11-13T09:52:56.199Z,27.82
2018-11-13T09:55:30.234Z,29.35
2018-11-13T09:58:04.294Z,27.27
2018-11-13T10:00:38.413Z,26.40
2018-11-13T10:03:13.116Z,25.30
2018-11-13T10:05:46.671Z,28.15
2018-11-13T10:08:20.719Z,33.02
2018-11-13T10:10:54.770Z,21.93
2018-11-13T10:13:28.900Z,25.35
2018-11-13T10:16:02.886Z,23.22
2018-11-13T10:18:38.038Z,20.57
2018-11-13T10:21:12.048Z,21.52
2018-11-13T10:23:46.084Z,22.50
2018-11-13T10:26:20.228Z,20.52
2018-11-13T10:28:54.261Z,18.98
2018-11-13T10:31:28.751Z,19.23
2018-11-13T10:34:02.941Z,17.42
2018-11-13T10:36:36.970Z,17.73
2018-11-13T10:39:11.440Z,16.25
2018-11-13T10:41:45.425Z,15.93
2018-11-13T10:44:19.571Z,15.28
2018-11-13T10:46:53.594Z,17.05
2018-11-13T10:49:27.933Z,14.18
2018-11-13T10:52:01.955Z,13.25
2018-11-13T10:54:36.240Z,13.18
2018-11-13T10:57:10.241Z,13.08
2018-11-13T10:59:44.368Z,11.78
2018-11-13T11:02:23.417Z,10.72
2018-11-13T11:05:01.539Z,10.18
2018-11-13T11:07:35.587Z,10.15
2018-11-13T11:10:09.724Z,10.13
2018-11-13T11:12:43.854Z,10.18
2018-11-13T11:15:17.941Z,9.28
2018-11-13T11:17:52.269Z,10.28
2018-11-13T11:20:26.326Z,9.90
2018-11-13T11:23:00.431Z,9.48
2018-11-13T11:25:34.623Z,9.40
2018-11-13T11:28:08.842Z,8.90
2018-11-13T11:30:42.933Z,9.08
2018-11-13T11:33:16.943Z,8.85
2018-11-13T11:35:51.155Z,9.60
2018-11-13T11:38:25.211Z,7.60
2018-11-13T11:40:59.294Z,9.08
2018-11-13T11:43:33.315Z,8.50
2018-11-13T11:46:07.392Z,7.72
2018-11-13T11:48:41.425Z,7.90
2018-11-13T11:51:15.468Z,6.20
2018-11-13T11:53:49.543Z,7.17
2018-11-13T11:56:23.586Z,6.70
2018-11-13T11:58:57.654Z,5.80
2018-11-13T12:01:31.788Z,6.50
2018-11-13T12:04:06.234Z,5.42
2018-11-13T12:06:40.512Z,5.72
2018-11-13T12:09:14.548Z,4.92
2018-11-13T12:11:48.597Z,5.05
2018-11-13T12:14:22.714Z,4.45
2018-11-13T12:16:56.760Z,5.03
2018-11-13T12:19:30.813Z,4.60
2018-11-13T12:22:04.939Z,4.55
2018-11-13T12:24:38.928Z,3.92
2018-11-13T12:27:13.018Z,4.45
2018-11-13T12:29:47.019Z,4.00
2018-11-13T12:32:21.075Z,4.03
2018-11-13T12:34:55.105Z,4.17
2018-11-13T12:37:29.137Z,4.40
2018-11-13T12:40:03.144Z,4.00
2018-11-13T12:42:37.211Z,4.15
2018-11-13T12:45:11.634Z,4.15
2018-11-13T12:47:45.826Z,4.08
2018-11-13T12:50:20.662Z,3.67
2018-11-13T12:52:54.728Z,3.35
2018-11-13T12:55:28.785Z,3.52
2018-11-13T12:58:02.807Z,3.55
2018-11-13T13:00:36.808Z,3.60
2018-11-13T13:03:10.875Z,3.50
2018-11-13T13:05:44.882Z,3.50
2018-11-13T13:08:18.927Z,3.70
2018-11-13T13:10:52.945Z,3.15
2018-11-13T13:13:27.020Z,3.25
2018-11-13T13:16:01.022Z,3.55
2018-11-13T13:18:35.038Z,3.20
2018-11-13T13:21:09.054Z,3.42
2018-11-13T13:23:43.186Z,3.77
2018-11-13T13:26:17.178Z,3.45
2018-11-13T13:28:51.235Z,3.17
2018-11-13T13:31:25.467Z,4.20
2018-11-13T13:33:59.758Z,3.62
2018-11-13T13:36:33.861Z,3.58
2018-11-13T13:39:09.384Z,3.40
2018-11-13T13:41:43.382Z,3.60
2018-11-13T13:44:17.495Z,3.70
2018-11-13T13:46:51.509Z,3.37
2018-11-13T13:49:25.622Z,3.50
2018-11-13T13:51:59.623Z,3.80
2018-11-13T13:54:33.690Z,3.95
2018-11-13T13:57:07.777Z,3.75
2018-11-13T13:59:41.859Z,3.75
2018-11-13T14:02:15.873Z,2.98
2018-11-13T14:04:50.502Z,3.95
2018-11-13T14:07:24.559Z,3.77
2018-11-13T14:09:58.577Z,3.62
2018-11-13T14:12:32.622Z,3.80
2018-11-13T14:15:07.814Z,3.27
2018-11-13T14:17:42.293Z,3.60
2018-11-13T14:20:17.483Z,3.50
2018-11-13T14:22:51.615Z,3.30
2018-11-13T14:25:25.630Z,2.90
2018-11-13T14:28:00.076Z,3.02
2018-11-13T14:37:39.707Z,2.80
2018-11-13T14:40:21.445Z,2.85
2018-11-13T14:42:55.475Z,3.12
2018-11-13T14:45:29.911Z,2.52
2018-11-13T14:48:04.059Z,3.05
2018-11-13T14:50:38.616Z,2.75
2018-11-13T14:53:13.253Z,2.98
2018-11-13T14:55:47.293Z,2.80
2018-11-13T14:58:21.420Z,2.92
2018-11-13T15:00:55.480Z,2.85
2018-11-13T15:03:29.477Z,2.65
2018-11-13T15:06:03.509Z,2.90
2018-11-13T15:08:37.500Z,2.50
2018-11-13T15:11:11.638Z,2.60
2018-11-13T15:13:45.631Z,2.37
2018-11-13T15:16:20.793Z,2.70
2018-11-13T15:18:54.803Z,2.33
2018-11-13T15:21:28.911Z,2.50
2018-11-13T15:24:02.916Z,2.10
2018-11-13T15:26:37.087Z,2.52
2018-11-13T15:29:11.116Z,2.50
2018-11-13T15:31:45.224Z,2.73
2018-11-13T15:34:19.246Z,2.83
2018-11-13T15:36:53.280Z,2.47
2018-11-13T15:39:27.285Z,2.33
2018-11-13T15:42:01.318Z,2.80
2018-11-13T15:44:35.458Z,2.58
2018-11-13T15:47:09.536Z,2.80
2018-11-13T15:49:43.552Z,2.77
2018-11-13T15:52:17.704Z,2.70
2018-11-13T15:54:51.637Z,2.80
2018-11-13T15:57:25.750Z,2.50
2018-11-13T15:59:59.773Z,2.90
2018-11-13T16:02:33.934Z,2.63
2018-11-13T16:05:25.532Z,2.05
2018-11-13T16:08:00.569Z,2.42
2018-11-13T16:10:34.598Z,2.53
2018-11-13T16:13:08.852Z,2.27
2018-11-13T16:15:43.317Z,2.47
2018-11-13T16:18:18.817Z,2.25
2018-11-13T16:20:52.862Z,3.13
2018-11-13T16:23:26.893Z,2.50
2018-11-13T16:26:00.875Z,3.50
2018-11-13T16:28:34.900Z,2.97
2018-11-13T16:31:08.909Z,3.27
2018-11-13T16:33:42.910Z,3.10
2018-11-13T16:36:17.038Z,3.00
2018-11-13T16:38:51.049Z,3.10
2018-11-13T16:41:25.082Z,3.50
2018-11-13T16:43:59.170Z,3.87
2018-11-13T16:46:33.206Z,3.30
2018-11-13T16:49:11.482Z,4.33
2018-11-13T16:51:47.924Z,3.33
2018-11-13T16:54:23.779Z,4.13
2018-11-13T16:56:58.770Z,3.73
2018-11-13T16:59:32.867Z,4.30
2018-11-13T17:02:07.021Z,3.57
2018-11-13T17:04:41.076Z,4.00
2018-11-13T17:07:15.193Z,3.80
2018-11-13T17:09:49.244Z,4.80
2018-11-13T17:12:23.364Z,4.53
2018-11-13T17:14:57.420Z,3.77
2018-11-13T17:17:31.556Z,4.43
2018-11-13T17:20:06.316Z,3.90
2018-11-13T17:22:41.114Z,3.90
2018-11-13T17:25:16.646Z,4.77
2018-11-13T17:27:51.824Z,4.10
2018-11-13T17:30:27.858Z,3.70
2018-11-13T17:33:03.188Z,4.53
2018-11-13T17:35:37.316Z,4.30
2018-11-13T17:38:11.493Z,5.40
2018-11-13T17:40:45.555Z,5.43
2018-11-13T17:43:20.679Z,4.70
2018-11-13T17:45:54.762Z,6.17
2018-11-13T17:48:28.788Z,3.63
2018-11-13T17:51:02.876Z,3.70
2018-11-13T17:53:36.940Z,3.80
2018-11-13T17:56:11.015Z,3.47
2018-11-13T17:58:45.882Z,4.10
2018-11-13T18:01:19.994Z,4.33
2018-11-13T18:03:54.019Z,5.63
2018-11-13T18:06:28.156Z,4.03
2018-11-13T18:09:02.224Z,3.70
2018-11-13T18:11:36.263Z,3.70
2018-11-13T18:14:11.184Z,5.30
2018-11-13T18:16:47.188Z,5.83
2018-11-13T18:19:22.791Z,4.67
2018-11-13T18:21:57.013Z,3.83
2018-11-13T18:24:31.110Z,3.50
2018-11-13T18:27:05.223Z,4.20
2018-11-13T18:29:39.322Z,3.77
2018-11-13T18:32:13.386Z,3.90
2018-11-13T18:34:47.648Z,4.10
2018-11-13T18:37:21.821Z,4.67
2018-11-13T18:39:56.007Z,5.17
2018-11-13T18:42:30.094Z,4.97
2018-11-13T18:45:04.323Z,4.47
2018-11-13T18:47:38.550Z,5.00
2018-11-13T18:50:16.185Z,3.90
2018-11-13T18:52:50.294Z,3.97
2018-11-13T18:55:24.655Z,3.43
2018-11-13T18:57:59.029Z,3.73
2018-11-13T19:00:34.731Z,3.60
2018-11-13T19:03:10.289Z,3.67
2018-11-13T19:05:44.440Z,4.00
2018-11-13T19:08:18.451Z,3.70
2018-11-13T19:10:52.623Z,3.63
2018-11-13T19:13:27.963Z,3.57
2018-11-13T19:16:04.278Z,3.63
2018-11-13T19:18:38.833Z,4.23
2018-11-13T19:21:12.950Z,4.43
2018-11-13T19:23:47.055Z,3.73
2018-11-13T19:26:21.157Z,3.97
2018-11-13T19:28:55.213Z,4.17
2018-11-13T19:31:29.365Z,3.50
2018-11-13T19:34:03.380Z,4.43
2018-11-13T19:36:37.585Z,4.17
2018-11-13T19:39:13.336Z,7.10
2018-11-13T19:41:47.671Z,8.40
2018-11-13T19:44:21.791Z,5.90
2018-11-13T19:46:56.113Z,4.43
2018-11-13T19:49:30.320Z,4.50
2018-11-13T19:52:04.370Z,4.57
2018-11-13T19:54:38.566Z,4.77
2018-11-13T19:57:12.741Z,5.10
2018-11-13T19:59:46.878Z,4.70
2018-11-13T20:02:21.099Z,5.07
2018-11-13T20:04:55.211Z,5.00
2018-11-13T20:07:29.262Z,5.00
2018-11-13T20:10:03.302Z,4.90
2018-11-13T20:12:37.429Z,5.00
2018-11-13T20:15:12.523Z,5.10
2018-11-13T20:17:46.685Z,5.40
2018-11-13T20:20:23.057Z,5.63
2018-11-13T20:22:59.755Z,5.10
2018-11-13T20:25:34.735Z,4.77
2018-11-13T20:28:10.156Z,5.53
2018-11-13T20:30:44.423Z,5.60
2018-11-13T20:33:18.453Z,5.80
2018-11-13T20:35:52.532Z,5.10
2018-11-13T20:38:26.663Z,5.43
2018-11-13T20:41:00.904Z,5.80
2018-11-13T20:43:35.226Z,6.30
2018-11-13T20:46:09.327Z,6.17
2018-11-13T20:48:43.377Z,5.87
2018-11-13T20:51:17.651Z,6.30
2018-11-13T20:53:51.757Z,6.20
2018-11-13T20:56:25.803Z,6.00
2018-11-13T20:58:59.971Z,6.30
2018-11-13T21:01:33.976Z,6.07
2018-11-13T21:04:08.030Z,6.87
2018-11-13T21:06:42.207Z,6.97
2018-11-13T21:09:16.367Z,6.93
2018-11-13T21:11:50.413Z,6.37
2018-11-13T21:14:24.456Z,6.97
2018-11-13T21:16:58.651Z,6.77
2018-11-13T21:19:32.677Z,6.73
2018-11-13T21:22:06.766Z,7.00
2018-11-13T21:24:40.794Z,6.77
2018-11-13T21:27:14.810Z,6.20
2018-11-13T21:29:49.034Z,6.90
2018-11-13T21:32:23.004Z,6.60
2018-11-13T21:34:57.046Z,6.73
2018-11-13T21:37:31.266Z,6.93
2018-11-13T21:40:05.659Z,6.60
2018-11-13T21:42:39.680Z,6.70
2018-11-13T21:45:14.292Z,6.33
2018-11-13T21:47:48.376Z,6.97
2018-11-13T21:50:26.065Z,6.80
2018-11-13T21:53:01.110Z,6.27
2018-11-13T21:55:35.555Z,6.97
2018-11-13T21:58:09.511Z,7.43
2018-11-13T22:00:43.518Z,6.90
2018-11-13T22:03:17.523Z,7.83
2018-11-13T22:05:51.695Z,7.93
2018-11-13T22:08:25.832Z,7.57
2018-11-13T22:10:59.881Z,8.20
2018-11-13T22:13:33.934Z,7.70
2018-11-13T22:16:08.060Z,7.47
2018-11-13T22:18:42.058Z,8.97
2018-11-13T22:21:16.305Z,7.77
2018-11-13T22:23:50.308Z,7.63
2018-11-13T22:26:24.501Z,9.53
2018-11-13T22:28:59.096Z,8.50
2018-11-13T22:31:33.797Z,8.23
2018-11-13T22:34:07.983Z,8.70
2018-11-13T22:36:42.051Z,9.17
2018-11-13T22:39:16.145Z,8.47
2018-11-13T22:41:50.326Z,8.70
2018-11-13T22:44:24.389Z,8.93
2018-11-13T22:46:58.436Z,8.90
2018-11-13T22:49:32.458Z,8.60
2018-11-13T22:52:07.215Z,8.77
2018-11-13T22:54:41.304Z,8.73
2018-11-13T22:57:15.380Z,8.90
2018-11-13T22:59:49.431Z,8.87
2018-11-13T23:02:23.682Z,8.63
2018-11-13T23:04:57.748Z,8.13
2018-11-13T23:07:31.786Z,9.57
2018-11-13T23:10:07.578Z,8.93
2018-11-13T23:12:42.281Z,9.60
2018-11-13T23:15:17.854Z,10.40
2018-11-13T23:17:51.949Z,9.40
2018-11-13T23:20:26.032Z,10.00
2018-11-13T23:23:00.116Z,9.43
2018-11-13T23:25:34.162Z,8.93
2018-11-13T23:28:08.277Z,9.67
2018-11-13T23:30:42.351Z,10.10
2018-11-13T23:33:16.621Z,10.37
2018-11-13T23:35:50.887Z,10.33
2018-11-13T23:38:25.085Z,9.00
2018-11-13T23:40:59.232Z,11.63
2018-11-13T23:43:33.630Z,10.10
2018-11-13T23:46:08.100Z,9.97
2018-11-13T23:48:42.211Z,9.70
2018-11-13T23:51:16.316Z,9.23
2018-11-13T23:53:50.631Z,10.47
2018-11-13T23:56:24.842Z,9.03
2018-11-13T23:58:59.064Z,9.13
